createdAt,value
2019-04-14T00:27:41.661Z,99.90
2019-04-14T00:57:46.286Z,99.90
2019-04-14T01:27:50.239Z,99.90
2019-04-14T01:58:07.959Z,99.90
2019-04-14T02:28:13.330Z,99.90
2019-04-14T02:58:49.613Z,99.90
2019-04-14T03:29:08.205Z,99.90
2019-04-14T03:58:33.587Z,99.90
2019-04-14T04:28:56.255Z,99.90
2019-04-14T04:59:01.100Z,99.30
2019-04-14T05:29:05.706Z,98.60
2019-04-14T05:59:09.546Z,97.20
2019-04-14T06:29:13.657Z,95.80
2019-04-14T06:59:17.523Z,93.60
2019-04-14T07:29:21.312Z,70.20
2019-04-14T07:59:26.959Z,73.60
2019-04-14T08:29:30.806Z,69.10
2019-04-14T08:59:41.923Z,59.70
2019-04-14T09:29:45.808Z,59.00
2019-04-14T09:59:49.652Z,62.90
2019-04-14T10:29:53.522Z,58.70
2019-04-14T10:59:57.368Z,58.80
2019-04-14T11:30:01.239Z,57.30
2019-04-14T12:00:08.679Z,54.80
2019-04-14T12:30:13.674Z,53.90
2019-04-14T13:00:22.623Z,56.10
2019-04-14T13:30:34.199Z,51.60
2019-04-14T14:00:38.213Z,51.60
2019-04-14T14:30:42.361Z,50.20
2019-04-14T15:00:46.351Z,49.40
2019-04-14T15:30:50.332Z,44.70
2019-04-14T16:00:56.157Z,45.50
2019-04-14T16:31:10.483Z,42.80
2019-04-14T17:01:18.639Z,44.10
2019-04-14T17:31:32.889Z,44.60
2019-04-14T18:01:38.536Z,47.90
2019-04-14T18:31:44.065Z,48.40
2019-04-14T19:01:49.629Z,48.80
2019-04-14T19:31:53.683Z,48.90
2019-04-14T20:01:57.709Z,49.80
2019-04-14T20:32:03.322Z,51.00
2019-04-14T21:02:14.664Z,52.20
2019-04-14T21:32:29.163Z,53.20
2019-04-14T22:02:46.629Z,53.90
2019-04-14T22:32:50.467Z,55.20
2019-04-14T23:02:58.581Z,55.60
2019-04-14T23:33:02.565Z,56.40
